Terre Haute International Hulman Field
KHUF : now visible

Airfield :











YOU CAN JOIN US ON...

 
LOGIN :

Register | Disclaimer

   EN    FR    IT 

 









Legend :    VFR   Marginal VFR   IFR   Intensive IFR   Very Intensive IFR
Visi :
Ceiling :
>= 8 km
>= 3000ft
5 to 8 km
1000 to 3000 ft
1500m to 5 km
500 to 1000 ft
800 to 1500m
200 to 500 ft
< 800m
< 200 ft
Symbols :   Thunderstorms  Fog  Heavy snow  Heavy precipitations  Wind > 20 kt






- Airport Elevation : 589 ft
- IATA code : HUF


KHUF - Terre Haute International Hulman Field

CURRENT METAR :
  • 042153Z 33009G18KT 10SM FEW046 FEW055 BKN070 23/14 A3005 RMK AO2 SLP171 T02330139

EXPIRED METARs :
  • 042053Z 35012G18KT 10SM SCT075 24/14 A3005 RMK AO2 SLP171 T02440139 51002
  • 041953Z 33010KT 10SM SCT075 24/13 A3005 RMK AO2 SLP171 T02440133

TAF KHUF
Valid from the 04 at 18:00 until the 05 at 18:00 UTC


041720Z 0418/0518 34008KT P6SM SCT035 BKN040
FM042000 34007KT P6SM SCT035
FM050100 35006KT P6SM FEW250
KZID FIR / North America



MET'MAP, your aeronautical weather chart ! - Copyright ORBIFLY December 2007 - Disclaimer

ORBIFLY MET'MAP TEAM :

Programming & Development : Alexandra Zaïnal
Concept & original design : Baudouin d'Aumeries
Assistance for programming : Marc-Olivier Méhu
Technical & hardware support : Manuel Goepfert

Contact : metmap@orbifly.com




SOURCES & CREDITS :

   NOAA       Earth
Advisory